sensor_id;sensor_type;location;lat;lon;timestamp;pressure;altitude;pressure_sealevel;temperature;humidity
43553;BME280;29153;42.696;23.218;2024-01-30T06:02:19;96402.59;;;-2.48;81.33
43553;BME280;29153;42.696;23.218;2024-01-30T06:04:47;96396.75;;;-2.46;82.52
43553;BME280;29153;42.696;23.218;2024-01-30T06:07:15;96408.96;;;-2.56;82.05
43553;BME280;29153;42.696;23.218;2024-01-30T06:09:43;96403.30;;;-2.56;81.87
43553;BME280;29153;42.696;23.218;2024-01-30T06:12:12;96401.94;;;-2.46;81.26
43553;BME280;29153;42.696;23.218;2024-01-30T06:14:39;96303.63;;;-3.16;80.82
43553;BME280;29153;42.696;23.218;2024-01-30T06:17:09;96406.67;;;-2.59;81.43
43553;BME280;29153;42.696;23.218;2024-01-30T06:19:38;96408.48;;;-2.56;81.27
43553;BME280;29153;42.696;23.218;2024-01-30T06:22:06;96408.43;;;-2.46;80.64
43553;BME280;29153;42.696;23.218;2024-01-30T06:24:33;96415.44;;;-2.43;80.58
43553;BME280;29153;42.696;23.218;2024-01-30T06:27:01;96412.78;;;-2.33;80.64
43553;BME280;29153;42.696;23.218;2024-01-30T06:29:28;96414.25;;;-2.31;81.00
43553;BME280;29153;42.696;23.218;2024-01-30T06:31:56;96411.92;;;-2.38;80.48
43553;BME280;29153;42.696;23.218;2024-01-30T06:34:23;96420.55;;;-2.19;79.63
43553;BME280;29153;42.696;23.218;2024-01-30T06:36:52;96420.78;;;-2.26;79.36
43553;BME280;29153;42.696;23.218;2024-01-30T06:39:20;96417.54;;;-2.11;79.92
43553;BME280;29153;42.696;23.218;2024-01-30T06:41:48;96419.69;;;-2.06;79.68
43553;BME280;29153;42.696;23.218;2024-01-30T06:44:15;96424.72;;;-2.05;79.23
43553;BME280;29153;42.696;23.218;2024-01-30T06:46:43;96417.54;;;-2.11;79.08
43553;BME280;29153;42.696;23.218;2024-01-30T06:49:10;96420.17;;;-2.07;78.46
43553;BME280;29153;42.696;23.218;2024-01-30T06:51:38;96416.38;;;-1.95;79.68
43553;BME280;29153;42.696;23.218;2024-01-30T06:54:06;96422.49;;;-2.00;78.42
43553;BME280;29153;42.696;23.218;2024-01-30T06:56:33;96422.97;;;-1.82;78.33
43553;BME280;29153;42.696;23.218;2024-01-30T06:59:02;96426.89;;;-1.78;78.47
43553;BME280;29153;42.696;23.218;2024-01-30T07:01:29;96432.42;;;-1.77;77.67
43553;BME280;29153;42.696;23.218;2024-01-30T07:03:58;96423.36;;;-1.73;77.34
43553;BME280;29153;42.696;23.218;2024-01-30T07:06:25;96426.67;;;-1.67;76.97
43553;BME280;29153;42.696;23.218;2024-01-30T07:08:53;96428.70;;;-1.53;77.59
43553;BME280;29153;42.696;23.218;2024-01-30T07:11:21;96429.36;;;-1.29;76.78
43553;BME280;29153;42.696;23.218;2024-01-30T07:13:51;96435.34;;;-1.07;75.61
43553;BME280;29153;42.696;23.218;2024-01-30T07:16:19;96429.09;;;-0.84;74.50
43553;BME280;29153;42.696;23.218;2024-01-30T07:18:46;96434.83;;;-0.31;72.21
43553;BME280;29153;42.696;23.218;2024-01-30T07:21:14;96430.97;;;0.06;68.52
43553;BME280;29153;42.696;23.218;2024-01-30T07:23:42;96433.91;;;0.19;66.74
43553;BME280;29153;42.696;23.218;2024-01-30T07:26:09;96441.09;;;0.41;65.16
43553;BME280;29153;42.696;23.218;2024-01-30T07:28:37;96441.23;;;0.43;64.34
43553;BME280;29153;42.696;23.218;2024-01-30T07:31:04;96437.34;;;0.56;64.14
43553;BME280;29153;42.696;23.218;2024-01-30T07:33:32;96441.72;;;0.75;63.55
43553;BME280;29153;42.696;23.218;2024-01-30T07:36:00;96441.32;;;1.11;62.12
43553;BME280;29153;42.696;23.218;2024-01-30T07:38:28;96436.30;;;1.44;60.80
43553;BME280;29153;42.696;23.218;2024-01-30T07:40:56;96433.47;;;1.58;62.08
43553;BME280;29153;42.696;23.218;2024-01-30T07:43:23;96433.19;;;1.75;57.16
43553;BME280;29153;42.696;23.218;2024-01-30T07:45:51;96431.80;;;1.65;57.67
43553;BME280;29153;42.696;23.218;2024-01-30T07:48:19;96428.14;;;1.43;57.79
43553;BME280;29153;42.696;23.218;2024-01-30T07:50:48;96425.73;;;1.68;60.01
43553;BME280;29153;42.696;23.218;2024-01-30T07:53:15;96425.35;;;1.75;57.94
43553;BME280;29153;42.696;23.218;2024-01-30T07:55:43;96423.95;;;1.96;55.73
43553;BME280;29153;42.696;23.218;2024-01-30T07:58:12;96415.50;;;1.86;57.91
43553;BME280;29153;42.696;23.218;2024-01-30T08:00:40;96422.11;;;1.73;56.46
43553;BME280;29153;42.696;23.218;2024-01-30T08:03:08;96417.08;;;1.68;55.39
43553;BME280;29153;42.696;23.218;2024-01-30T08:05:35;96413.27;;;1.05;56.52
43553;BME280;29153;42.696;23.218;2024-01-30T08:08:03;96418.08;;;0.81;59.28
43553;BME280;29153;42.696;23.218;2024-01-30T08:10:30;96413.97;;;0.86;59.58
43553;BME280;29153;42.696;23.218;2024-01-30T08:12:58;96421.14;;;0.93;59.16
43553;BME280;29153;42.696;23.218;2024-01-30T08:15:26;96416.38;;;1.00;60.24
43553;BME280;29153;42.696;23.218;2024-01-30T08:17:53;96415.08;;;1.00;58.63
43553;BME280;29153;42.696;23.218;2024-01-30T08:20:22;96416.71;;;1.01;60.90
43553;BME280;29153;42.696;23.218;2024-01-30T08:22:50;96420.22;;;0.53;58.89
43553;BME280;29153;42.696;23.218;2024-01-30T08:25:18;96420.20;;;0.61;61.29
43553;BME280;29153;42.696;23.218;2024-01-30T08:27:46;96419.66;;;0.86;60.57
43553;BME280;29153;42.696;23.218;2024-01-30T08:30:13;96421.42;;;1.06;60.09
43553;BME280;29153;42.696;23.218;2024-01-30T08:32:42;96428.48;;;0.89;59.54
43553;BME280;29153;42.696;23.218;2024-01-30T08:35:10;96423.51;;;1.18;60.68
43553;BME280;29153;42.696;23.218;2024-01-30T08:37:39;96427.38;;;0.67;58.48
43553;BME280;29153;42.696;23.218;2024-01-30T08:40:07;96425.39;;;0.77;60.52
43553;BME280;29153;42.696;23.218;2024-01-30T08:42:35;96420.98;;;0.82;61.11
43553;BME280;29153;42.696;23.218;2024-01-30T08:45:03;96434.05;;;0.70;62.40
43553;BME280;29153;42.696;23.218;2024-01-30T08:47:31;96428.69;;;0.67;61.33
43553;BME280;29153;42.696;23.218;2024-01-30T08:49:59;96428.63;;;0.91;61.80
43553;BME280;29153;42.696;23.218;2024-01-30T08:52:28;96430.11;;;0.94;60.83
43553;BME280;29153;42.696;23.218;2024-01-30T08:54:56;96430.96;;;0.66;61.37
43553;BME280;29153;42.696;23.218;2024-01-30T08:57:25;96434.55;;;0.61;61.74
43553;BME280;29153;42.696;23.218;2024-01-30T08:59:55;96432.92;;;0.76;62.13
43553;BME280;29153;42.696;23.218;2024-01-30T09:02:22;96430.42;;;0.91;61.14
43553;BME280;29153;42.696;23.218;2024-01-30T09:04:50;96441.04;;;0.94;61.84
43553;BME280;29153;42.696;23.218;2024-01-30T09:07:17;96435.02;;;0.73;59.63
43553;BME280;29153;42.696;23.218;2024-01-30T09:09:45;96440.54;;;0.86;59.78
43553;BME280;29153;42.696;23.218;2024-01-30T09:12:18;96448.54;;;0.88;60.73
43553;BME280;29153;42.696;23.218;2024-01-30T09:14:45;96443.03;;;0.67;61.23
43553;BME280;29153;42.696;23.218;2024-01-30T09:17:12;96438.79;;;0.66;62.21
43553;BME280;29153;42.696;23.218;2024-01-30T09:19:40;96442.70;;;0.70;63.03
43553;BME280;29153;42.696;23.218;2024-01-30T09:22:10;96436.66;;;0.70;63.21
43553;BME280;29153;42.696;23.218;2024-01-30T09:24:37;96434.66;;;0.96;63.28
43553;BME280;29153;42.696;23.218;2024-01-30T09:27:05;96432.77;;;1.25;61.86
43553;BME280;29153;42.696;23.218;2024-01-30T09:29:32;96451.75;;;1.15;61.33
43553;BME280;29153;42.696;23.218;2024-01-30T09:32:02;96432.63;;;1.22;61.78
43553;BME280;29153;42.696;23.218;2024-01-30T09:34:29;96440.28;;;1.20;59.47
43553;BME280;29153;42.696;23.218;2024-01-30T09:36:58;96424.72;;;0.91;61.45
43553;BME280;29153;42.696;23.218;2024-01-30T09:39:26;96425.16;;;1.07;61.29
43553;BME280;29153;42.696;23.218;2024-01-30T09:42:00;96419.48;;;1.43;61.99
43553;BME280;29153;42.696;23.218;2024-01-30T09:44:26;96426.63;;;1.53;60.12
43553;BME280;29153;42.696;23.218;2024-01-30T09:46:55;96430.00;;;1.26;60.51
43553;BME280;29153;42.696;23.218;2024-01-30T09:49:25;96418.72;;;0.79;60.74
43553;BME280;29153;42.696;23.218;2024-01-30T09:51:53;96358.48;;;0.41;63.25
43553;BME280;29153;42.696;23.218;2024-01-30T09:54:23;96410.55;;;0.94;63.29
43553;BME280;29153;42.696;23.218;2024-01-30T09:56:51;96416.48;;;0.56;60.60
43553;BME280;29153;42.696;23.218;2024-01-30T09:59:19;96406.55;;;0.07;62.56
43553;BME280;29153;42.696;23.218;2024-01-30T10:01:46;96419.91;;;0.12;63.02
43553;BME280;29153;42.696;23.218;2024-01-30T10:04:14;96413.05;;;0.43;63.89
43553;BME280;29153;42.696;23.218;2024-01-30T10:06:43;96414.95;;;0.77;62.97
43553;BME280;29153;42.696;23.218;2024-01-30T10:09:10;96411.55;;;0.73;61.88
43553;BME280;29153;42.696;23.218;2024-01-30T10:11:38;96415.28;;;0.82;60.40
43553;BME280;29153;42.696;23.218;2024-01-30T10:14:05;96412.00;;;0.93;60.87
43553;BME280;29153;42.696;23.218;2024-01-30T10:16:35;96402.71;;;0.86;59.27
43553;BME280;29153;42.696;23.218;2024-01-30T10:19:02;96396.83;;;1.39;60.64
43553;BME280;29153;42.696;23.218;2024-01-30T10:21:33;96399.66;;;1.60;58.15
43553;BME280;29153;42.696;23.218;2024-01-30T10:24:00;96403.27;;;1.55;58.14
43553;BME280;29153;42.696;23.218;2024-01-30T10:26:28;96393.70;;;1.44;57.34
43553;BME280;29153;42.696;23.218;2024-01-30T10:28:57;96409.17;;;1.53;58.28
43553;BME280;29153;42.696;23.218;2024-01-30T10:31:25;96396.44;;;1.19;58.72
43553;BME280;29153;42.696;23.218;2024-01-30T10:33:52;96396.78;;;1.47;60.00
43553;BME280;29153;42.696;23.218;2024-01-30T10:36:21;96391.47;;;1.36;58.64
43553;BME280;29153;42.696;23.218;2024-01-30T10:38:52;96401.70;;;1.42;58.64
43553;BME280;29153;42.696;23.218;2024-01-30T10:41:25;96397.59;;;1.78;58.42
43553;BME280;29153;42.696;23.218;2024-01-30T10:43:58;96401.47;;;1.87;58.46
43553;BME280;29153;42.696;23.218;2024-01-30T10:46:25;96398.39;;;1.83;56.15
43553;BME280;29153;42.696;23.218;2024-01-30T10:48:58;96396.66;;;1.67;56.12
43553;BME280;29153;42.696;23.218;2024-01-30T10:51:29;96390.71;;;1.81;57.76
43553;BME280;29153;42.696;23.218;2024-01-30T10:54:05;96389.07;;;1.58;57.67
43553;BME280;29153;42.696;23.218;2024-01-30T10:56:34;96383.50;;;1.61;57.37
43553;BME280;29153;42.696;23.218;2024-01-30T10:59:02;96373.79;;;1.43;58.83
43553;BME280;29153;42.696;23.218;2024-01-30T11:01:31;96374.67;;;1.62;58.95
43553;BME280;29153;42.696;23.218;2024-01-30T11:03:59;96381.55;;;1.28;57.52
43553;BME280;29153;42.696;23.218;2024-01-30T11:06:26;96373.98;;;1.41;59.03
43553;BME280;29153;42.696;23.218;2024-01-30T11:09:04;96371.71;;;1.34;58.21
43553;BME280;29153;42.696;23.218;2024-01-30T11:11:56;96362.81;;;1.16;59.55
43553;BME280;29153;42.696;23.218;2024-01-30T11:14:26;96364.66;;;1.04;58.52
43553;BME280;29153;42.696;23.218;2024-01-30T11:16:57;96360.69;;;1.24;59.07
43553;BME280;29153;42.696;23.218;2024-01-30T11:19:26;96356.11;;;1.22;59.58
43553;BME280;29153;42.696;23.218;2024-01-30T11:21:54;96352.55;;;1.19;60.17
43553;BME280;29153;42.696;23.218;2024-01-30T11:24:23;96344.18;;;1.58;61.00
43553;BME280;29153;42.696;23.218;2024-01-30T11:26:56;96353.05;;;1.49;58.44
43553;BME280;29153;42.696;23.218;2024-01-30T11:29:29;96350.66;;;1.66;58.31
43553;BME280;29153;42.696;23.218;2024-01-30T11:31:57;96356.48;;;1.50;57.73
43553;BME280;29153;42.696;23.218;2024-01-30T11:34:25;96356.38;;;1.35;58.33
43553;BME280;29153;42.696;23.218;2024-01-30T11:36:56;96341.95;;;1.47;61.65
43553;BME280;29153;42.696;23.218;2024-01-30T11:39:30;96345.75;;;1.63;58.93
43553;BME280;29153;42.696;23.218;2024-01-30T11:41:59;96353.13;;;1.87;58.93
43553;BME280;29153;42.696;23.218;2024-01-30T11:44:26;96345.50;;;1.77;57.82
43553;BME280;29153;42.696;23.218;2024-01-30T11:46:53;96357.04;;;1.87;58.60
43553;BME280;29153;42.696;23.218;2024-01-30T11:49:21;96355.39;;;1.63;58.86
43553;BME280;29153;42.696;23.218;2024-01-30T11:51:50;96354.79;;;1.57;58.48
43553;BME280;29153;42.696;23.218;2024-01-30T11:54:19;96351.59;;;1.43;58.77
43553;BME280;29153;42.696;23.218;2024-01-30T11:56:47;96343.55;;;1.52;59.47
43553;BME280;29153;42.696;23.218;2024-01-30T11:59:14;96342.03;;;1.62;60.21
43553;BME280;29153;42.696;23.218;2024-01-30T12:01:42;96339.08;;;1.88;58.93
43553;BME280;29153;42.696;23.218;2024-01-30T12:04:10;96333.36;;;2.07;59.63
43553;BME280;29153;42.696;23.218;2024-01-30T12:06:38;96329.65;;;2.20;58.89
43553;BME280;29153;42.696;23.218;2024-01-30T12:09:06;96328.70;;;2.17;57.96
43553;BME280;29153;42.696;23.218;2024-01-30T12:11:49;96315.98;;;1.95;59.74
43553;BME280;29153;42.696;23.218;2024-01-30T12:14:17;96312.75;;;1.89;57.61
43553;BME280;29153;42.696;23.218;2024-01-30T12:16:48;96311.83;;;1.59;57.13
43553;BME280;29153;42.696;23.218;2024-01-30T12:19:24;96306.69;;;1.47;58.58
43553;BME280;29153;42.696;23.218;2024-01-30T12:21:58;96299.56;;;1.37;59.69
43553;BME280;29153;42.696;23.218;2024-01-30T12:24:30;96297.25;;;1.42;59.40
43553;BME280;29153;42.696;23.218;2024-01-30T12:27:00;96300.00;;;1.49;60.48
43553;BME280;29153;42.696;23.218;2024-01-30T12:29:27;96300.92;;;1.29;59.60
43553;BME280;29153;42.696;23.218;2024-01-30T12:31:56;96301.30;;;1.49;61.02
43553;BME280;29153;42.696;23.218;2024-01-30T12:34:25;96301.28;;;1.53;59.84
43553;BME280;29153;42.696;23.218;2024-01-30T12:36:53;96297.88;;;1.48;59.83
43553;BME280;29153;42.696;23.218;2024-01-30T12:39:20;96293.88;;;1.60;60.17
43553;BME280;29153;42.696;23.218;2024-01-30T12:41:49;96294.18;;;1.38;58.82
43553;BME280;29153;42.696;23.218;2024-01-30T12:44:16;96296.37;;;1.54;60.21
43553;BME280;29153;42.696;23.218;2024-01-30T12:46:44;96276.47;;;1.53;60.02
43553;BME280;29153;42.696;23.218;2024-01-30T12:49:13;96287.49;;;1.40;59.07
43553;BME280;29153;42.696;23.218;2024-01-30T12:51:42;96282.45;;;1.34;59.83
43553;BME280;29153;42.696;23.218;2024-01-30T12:54:09;96291.97;;;1.50;60.44
43553;BME280;29153;42.696;23.218;2024-01-30T12:56:37;96282.80;;;1.54;59.92
43553;BME280;29153;42.696;23.218;2024-01-30T12:59:04;96274.74;;;1.64;60.34
43553;BME280;29153;42.696;23.218;2024-01-30T13:01:32;96279.95;;;1.45;59.37
43553;BME280;29153;42.696;23.218;2024-01-30T13:04:00;96276.69;;;1.43;60.72
43553;BME280;29153;42.696;23.218;2024-01-30T13:06:27;96264.26;;;1.49;60.13
43553;BME280;29153;42.696;23.218;2024-01-30T13:08:55;96268.44;;;1.54;59.85
43553;BME280;29153;42.696;23.218;2024-01-30T13:11:22;96260.64;;;1.50;60.31
43553;BME280;29153;42.696;23.218;2024-01-30T13:13:52;96258.75;;;1.63;59.66
43553;BME280;29153;42.696;23.218;2024-01-30T13:16:20;96260.83;;;1.49;58.69
43553;BME280;29153;42.696;23.218;2024-01-30T13:18:48;96260.08;;;1.59;60.11
43553;BME280;29153;42.696;23.218;2024-01-30T13:21:16;96264.41;;;1.25;59.21
43553;BME280;29153;42.696;23.218;2024-01-30T13:23:43;96262.03;;;1.38;60.11
43553;BME280;29153;42.696;23.218;2024-01-30T13:26:11;96255.38;;;1.54;60.80
43553;BME280;29153;42.696;23.218;2024-01-30T13:28:41;96261.91;;;1.54;59.28
43553;BME280;29153;42.696;23.218;2024-01-30T13:31:09;96265.73;;;1.48;59.40
43553;BME280;29153;42.696;23.218;2024-01-30T13:33:36;96261.25;;;1.33;59.89
43553;BME280;29153;42.696;23.218;2024-01-30T13:36:04;96249.73;;;1.47;62.29
43553;BME280;29153;42.696;23.218;2024-01-30T13:38:32;96262.72;;;1.36;60.77
43553;BME280;29153;42.696;23.218;2024-01-30T13:41:00;96248.78;;;1.44;60.77
43553;BME280;29153;42.696;23.218;2024-01-30T13:43:27;96255.12;;;1.49;61.41
43553;BME280;29153;42.696;23.218;2024-01-30T13:45:55;96253.78;;;1.53;60.89
43553;BME280;29153;42.696;23.218;2024-01-30T13:48:23;96250.09;;;1.44;60.42
43553;BME280;29153;42.696;23.218;2024-01-30T13:50:50;96249.93;;;1.45;60.49
43553;BME280;29153;42.696;23.218;2024-01-30T13:53:19;96257.17;;;1.35;59.72
43553;BME280;29153;42.696;23.218;2024-01-30T13:55:47;96250.91;;;1.44;60.76
43553;BME280;29153;42.696;23.218;2024-01-30T13:58:15;96260.27;;;1.34;60.68
43553;BME280;29153;42.696;23.218;2024-01-30T14:00:43;96262.82;;;1.43;60.12
43553;BME280;29153;42.696;23.218;2024-01-30T14:03:11;96258.20;;;1.26;60.95
43553;BME280;29153;42.696;23.218;2024-01-30T14:05:38;96257.55;;;1.28;59.91
43553;BME280;29153;42.696;23.218;2024-01-30T14:08:07;96255.59;;;1.26;60.71
43553;BME280;29153;42.696;23.218;2024-01-30T14:10:35;96251.37;;;1.21;61.41
43553;BME280;29153;42.696;23.218;2024-01-30T14:13:02;96256.02;;;1.33;61.33
43553;BME280;29153;42.696;23.218;2024-01-30T14:15:30;96250.34;;;1.30;61.42
43553;BME280;29153;42.696;23.218;2024-01-30T14:17:57;96252.92;;;1.34;61.63
43553;BME280;29153;42.696;23.218;2024-01-30T14:20:25;96248.06;;;1.31;62.13
43553;BME280;29153;42.696;23.218;2024-01-30T14:22:52;96247.33;;;1.18;62.50
43553;BME280;29153;42.696;23.218;2024-01-30T14:25:21;96242.51;;;1.03;62.77
43553;BME280;29153;42.696;23.218;2024-01-30T14:27:48;96246.41;;;1.11;63.03
43553;BME280;29153;42.696;23.218;2024-01-30T14:30:16;96251.95;;;1.08;62.47
43553;BME280;29153;42.696;23.218;2024-01-30T14:32:44;96248.38;;;1.05;64.09
43553;BME280;29153;42.696;23.218;2024-01-30T14:35:13;96242.51;;;1.03;64.40
43553;BME280;29153;42.696;23.218;2024-01-30T14:37:40;96251.84;;;1.02;62.26
43553;BME280;29153;42.696;23.218;2024-01-30T14:40:08;96248.89;;;1.01;63.89
43553;BME280;29153;42.696;23.218;2024-01-30T14:42:36;96243.22;;;0.97;65.04
43553;BME280;29153;42.696;23.218;2024-01-30T14:45:05;96245.17;;;0.95;65.65
43553;BME280;29153;42.696;23.218;2024-01-30T14:47:32;96244.52;;;0.97;65.90
43553;BME280;29153;42.696;23.218;2024-01-30T14:50:01;96249.27;;;0.94;65.21
43553;BME280;29153;42.696;23.218;2024-01-30T14:52:29;96256.42;;;0.96;64.17
43553;BME280;29153;42.696;23.218;2024-01-30T14:54:57;96252.73;;;0.82;65.56
43553;BME280;29153;42.696;23.218;2024-01-30T14:57:25;96251.64;;;0.76;65.13
43553;BME280;29153;42.696;23.218;2024-01-30T14:59:53;96255.88;;;0.73;67.34
43553;BME280;29153;42.696;23.218;2024-01-30T15:02:21;96261.16;;;0.57;67.67
43553;BME280;29153;42.696;23.218;2024-01-30T15:04:48;96257.58;;;0.58;68.06
43553;BME280;29153;42.696;23.218;2024-01-30T15:07:16;96257.95;;;0.39;67.79
43553;BME280;29153;42.696;23.218;2024-01-30T15:09:44;96253.21;;;0.51;68.24
43553;BME280;29153;42.696;23.218;2024-01-30T15:12:11;96258.42;;;0.51;68.24
43553;BME280;29153;42.696;23.218;2024-01-30T15:14:39;96253.09;;;0.36;69.41
43553;BME280;29153;42.696;23.218;2024-01-30T15:17:06;96252.57;;;0.44;68.72
43553;BME280;29153;42.696;23.218;2024-01-30T15:19:34;96250.84;;;0.29;69.00
43553;BME280;29153;42.696;23.218;2024-01-30T15:22:01;96248.73;;;0.20;70.58
43553;BME280;29153;42.696;23.218;2024-01-30T15:24:29;96248.08;;;0.18;71.39
43553;BME280;29153;42.696;23.218;2024-01-30T15:26:56;96250.20;;;0.19;71.52
43553;BME280;29153;42.696;23.218;2024-01-30T15:29:24;96226.97;;;-0.07;72.29
43553;BME280;29153;42.696;23.218;2024-01-30T15:31:52;96260.66;;;0.07;72.68
43553;BME280;29153;42.696;23.218;2024-01-30T15:34:19;96263.29;;;-0.10;72.32
43553;BME280;29153;42.696;23.218;2024-01-30T15:36:47;96262.62;;;-0.12;72.84
43553;BME280;29153;42.696;23.218;2024-01-30T15:39:15;96257.28;;;-0.22;73.44
43553;BME280;29153;42.696;23.218;2024-01-30T15:41:43;96259.52;;;-0.03;73.47
43553;BME280;29153;42.696;23.218;2024-01-30T15:44:11;96262.80;;;-0.09;72.56
43553;BME280;29153;42.696;23.218;2024-01-30T15:46:38;96261.32;;;-0.12;72.59
43553;BME280;29153;42.696;23.218;2024-01-30T15:49:06;96267.20;;;-0.18;72.90
43553;BME280;29153;42.696;23.218;2024-01-30T15:51:34;96267.99;;;-0.21;73.39
43553;BME280;29153;42.696;23.218;2024-01-30T15:54:01;96272.09;;;-0.35;74.13
43553;BME280;29153;42.696;23.218;2024-01-30T15:56:29;96267.37;;;-0.31;75.50
43553;BME280;29153;42.696;23.218;2024-01-30T15:58:56;96278.91;;;-0.34;75.33
43553;BME280;29153;42.696;23.218;2024-01-30T16:01:24;96282.51;;;-0.39;75.29
43553;BME280;29153;42.696;23.218;2024-01-30T16:03:51;96276.64;;;-0.45;76.23
43553;BME280;29153;42.696;23.218;2024-01-30T16:06:19;96278.42;;;-0.37;77.16
43553;BME280;29153;42.696;23.218;2024-01-30T16:08:46;96284.93;;;-0.41;78.17
43553;BME280;29153;42.696;23.218;2024-01-30T16:11:20;96288.20;;;-0.52;78.61
43553;BME280;29153;42.696;23.218;2024-01-30T16:13:44;96292.25;;;-0.61;77.62
43553;BME280;29153;42.696;23.218;2024-01-30T16:16:12;96292.10;;;-0.52;76.95
43553;BME280;29153;42.696;23.218;2024-01-30T16:18:40;96295.81;;;-0.62;76.63
43553;BME280;29153;42.696;23.218;2024-01-30T16:21:07;96295.82;;;-0.58;77.25
43553;BME280;29153;42.696;23.218;2024-01-30T16:23:35;96292.73;;;-0.58;77.40
43553;BME280;29153;42.696;23.218;2024-01-30T16:26:02;96292.88;;;-0.59;77.09
43553;BME280;29153;42.696;23.218;2024-01-30T16:28:30;96301.02;;;-0.66;76.72
43553;BME280;29153;42.696;23.218;2024-01-30T16:31:00;96298.43;;;-0.50;77.62
43553;BME280;29153;42.696;23.218;2024-01-30T16:33:33;96296.15;;;-0.61;76.68
43553;BME280;29153;42.696;23.218;2024-01-30T16:35:56;96293.22;;;-0.54;76.66
43553;BME280;29153;42.696;23.218;2024-01-30T16:38:24;96296.30;;;-0.59;75.78
43553;BME280;29153;42.696;23.218;2024-01-30T16:40:51;96301.65;;;-0.68;75.76
43553;BME280;29153;42.696;23.218;2024-01-30T16:43:19;96290.88;;;-0.85;76.61
43553;BME280;29153;42.696;23.218;2024-01-30T16:45:46;96291.57;;;-0.71;77.00
43553;BME280;29153;42.696;23.218;2024-01-30T16:48:15;96302.13;;;-0.77;77.79
43553;BME280;29153;42.696;23.218;2024-01-30T16:50:44;96301.12;;;-0.92;77.36
43553;BME280;29153;42.696;23.218;2024-01-30T16:53:12;96299.02;;;-0.84;77.93
43553;BME280;29153;42.696;23.218;2024-01-30T16:55:40;96303.94;;;-0.77;77.58
43553;BME280;29153;42.696;23.218;2024-01-30T16:58:07;96299.20;;;-0.86;78.22
43553;BME280;29153;42.696;23.218;2024-01-30T17:00:36;96299.47;;;-1.01;77.16
43553;BME280;29153;42.696;23.218;2024-01-30T17:03:03;96302.27;;;-0.90;78.41
43553;BME280;29153;42.696;23.218;2024-01-30T17:05:31;96307.00;;;-0.86;79.12
43553;BME280;29153;42.696;23.218;2024-01-30T17:07:58;96304.06;;;-0.87;78.71
43553;BME280;29153;42.696;23.218;2024-01-30T17:10:27;96300.30;;;-0.93;78.66
43553;BME280;29153;42.696;23.218;2024-01-30T17:12:54;96298.03;;;-0.96;79.44
43553;BME280;29153;42.696;23.218;2024-01-30T17:15:22;96306.45;;;-1.02;79.18
43553;BME280;29153;42.696;23.218;2024-01-30T17:17:50;96303.72;;;-0.96;80.55
43553;BME280;29153;42.696;23.218;2024-01-30T17:20:19;96304.52;;;-1.00;80.33
43553;BME280;29153;42.696;23.218;2024-01-30T17:22:46;96310.47;;;-1.11;80.30
43553;BME280;29153;42.696;23.218;2024-01-30T17:25:14;96310.01;;;-1.07;81.87
43553;BME280;29153;42.696;23.218;2024-01-30T17:27:41;96308.76;;;-0.99;83.25
43553;BME280;29153;42.696;23.218;2024-01-30T17:30:12;96312.30;;;-1.08;83.37
43553;BME280;29153;42.696;23.218;2024-01-30T17:32:40;96310.25;;;-1.34;83.53
43553;BME280;29153;42.696;23.218;2024-01-30T17:35:08;96310.89;;;-1.32;84.43
43553;BME280;29153;42.696;23.218;2024-01-30T17:37:36;96302.65;;;-1.57;84.19
43553;BME280;29153;42.696;23.218;2024-01-30T17:40:05;96308.62;;;-1.65;84.66
43553;BME280;29153;42.696;23.218;2024-01-30T17:42:34;96314.36;;;-1.53;85.43
43553;BME280;29153;42.696;23.218;2024-01-30T17:45:05;96311.92;;;-1.59;84.60
43553;BME280;29153;42.696;23.218;2024-01-30T17:47:34;96311.80;;;-2.01;82.72
43553;BME280;29153;42.696;23.218;2024-01-30T17:50:01;96317.22;;;-2.16;82.99
43553;BME280;29153;42.696;23.218;2024-01-30T17:52:29;96313.64;;;-2.19;84.51
43553;BME280;29153;42.696;23.218;2024-01-30T17:54:56;96311.05;;;-2.19;84.66
43553;BME280;29153;42.696;23.218;2024-01-30T17:57:24;96318.73;;;-2.31;84.69
43553;BME280;29153;42.696;23.218;2024-01-30T17:59:51;96319.17;;;-2.14;85.69
43553;BME280;29153;42.696;23.218;2024-01-30T18:02:19;96312.19;;;-2.35;85.16
43553;BME280;29153;42.696;23.218;2024-01-30T18:04:47;96305.08;;;-2.33;86.43
43553;BME280;29153;42.696;23.218;2024-01-30T18:07:14;96309.55;;;-2.21;86.73
43553;BME280;29153;42.696;23.218;2024-01-30T18:09:42;96310.70;;;-2.20;86.62
43553;BME280;29153;42.696;23.218;2024-01-30T18:12:09;96313.96;;;-2.40;86.31
43553;BME280;29153;42.696;23.218;2024-01-30T18:14:38;96307.45;;;-2.61;86.22
43553;BME280;29153;42.696;23.218;2024-01-30T18:17:06;96314.68;;;-2.65;87.07
43553;BME280;29153;42.696;23.218;2024-01-30T18:19:33;96305.30;;;-2.48;87.55
43553;BME280;29153;42.696;23.218;2024-01-30T18:22:01;96297.92;;;-2.74;86.92
43553;BME280;29153;42.696;23.218;2024-01-30T18:24:28;96297.70;;;-2.95;88.00
43553;BME280;29153;42.696;23.218;2024-01-30T18:26:56;96306.69;;;-2.71;88.13
43553;BME280;29153;42.696;23.218;2024-01-30T18:29:23;96302.02;;;-2.68;87.77
43553;BME280;29153;42.696;23.218;2024-01-30T18:31:52;96298.61;;;-2.68;87.29
43553;BME280;29153;42.696;23.218;2024-01-30T18:34:20;96300.13;;;-2.80;87.63
43553;BME280;29153;42.696;23.218;2024-01-30T18:36:47;96304.59;;;-2.86;87.69
43553;BME280;29153;42.696;23.218;2024-01-30T18:39:15;96303.84;;;-3.13;87.95
43553;BME280;29153;42.696;23.218;2024-01-30T18:41:42;96299.08;;;-3.04;88.52
43553;BME280;29153;42.696;23.218;2024-01-30T18:44:09;96304.45;;;-3.29;89.05
43553;BME280;29153;42.696;23.218;2024-01-30T18:46:37;96297.79;;;-3.18;89.33
43553;BME280;29153;42.696;23.218;2024-01-30T18:49:04;96298.91;;;-3.34;89.39
43553;BME280;29153;42.696;23.218;2024-01-30T18:51:32;96291.22;;;-3.26;90.05
43553;BME280;29153;42.696;23.218;2024-01-30T18:54:00;96291.79;;;-3.32;89.91
43553;BME280;29153;42.696;23.218;2024-01-30T18:56:27;96287.95;;;-3.28;89.96
43553;BME280;29153;42.696;23.218;2024-01-30T18:58:55;96289.63;;;-3.50;89.60
43553;BME280;29153;42.696;23.218;2024-01-30T19:01:22;96291.11;;;-3.61;90.55
43553;BME280;29153;42.696;23.218;2024-01-30T19:03:50;96292.45;;;-3.57;90.68